Time;durP1;ratioP1;P1;durP2;ratioP2;P2;SDS_P1;SDS_P2;PMS_P1;PMS_P2;Temp;Humidity;BMP_temperature;BMP_pressure;BME280_temperature;BME280_humidity;BME280_pressure;Samples;Min_cycle;Max_cycle;Signal;HPM_P1;HPM_P2
2021/04/21 00:00:10;;;;;;;19.25;8.18;;;5.90;99.90;;;;;;5092155;28;20194;-50
2021/04/21 00:02:36;;;;;;;15.63;7.47;;;6.00;99.90;;;;;;5093907;28;20177;-52
2021/04/21 00:05:04;;;;;;;16.77;8.27;;;6.00;99.90;;;;;;5092569;28;20181;-51
2021/04/21 00:07:30;;;;;;;20.23;9.50;;;6.00;99.90;;;;;;5095241;28;20702;-49
2021/04/21 00:09:56;;;;;;;20.92;9.55;;;6.00;99.90;;;;;;5082296;28;20173;-51
2021/04/21 00:12:22;;;;;;;16.40;8.02;;;6.10;99.90;;;;;;5075781;28;20173;-51
2021/04/21 00:14:52;;;;;;;22.27;10.93;;;6.10;99.90;;;;;;5098527;28;20176;-50
2021/04/21 00:17:23;;;;;;;18.23;8.50;;;6.10;99.90;;;;;;5092478;28;20181;-52
2021/04/21 00:19:49;;;;;;;45.88;17.55;;;6.10;99.90;;;;;;5087452;28;20197;-50
2021/04/21 00:22:16;;;;;;;20.80;10.32;;;6.20;99.90;;;;;;5082537;28;20164;-50
2021/04/21 00:24:42;;;;;;;22.52;9.95;;;6.30;99.90;;;;;;5090633;28;20185;-50
2021/04/21 00:27:09;;;;;;;18.23;9.30;;;6.30;99.90;;;;;;5079797;28;20509;-52
2021/04/21 00:29:41;;;;;;;24.58;11.82;;;6.30;99.90;;;;;;5096699;28;20177;-52
2021/04/21 00:32:07;;;;;;;23.13;13.82;;;6.30;99.90;;;;;;5073712;28;20220;-49
2021/04/21 00:34:33;;;;;;;22.58;12.13;;;6.30;99.90;;;;;;5071248;28;20193;-49
2021/04/21 00:36:59;;;;;;;26.35;10.73;;;6.30;99.90;;;;;;5074077;28;20182;-51
2021/04/21 00:39:25;;;;;;;35.70;18.52;;;6.20;99.90;;;;;;5088724;28;20201;-50
2021/04/21 00:41:58;;;;;;;25.40;11.88;;;6.30;99.90;;;;;;5070018;28;20205;-52
2021/04/21 00:44:41;;;;;;;29.00;11.75;;;6.30;99.90;;;;;;5098015;28;20192;-50
2021/04/21 00:47:10;;;;;;;25.92;11.52;;;6.20;99.90;;;;;;5101325;28;20157;-51
2021/04/21 00:49:55;;;;;;;28.33;13.70;;;6.20;99.90;;;;;;5090784;28;20739;-53
2021/04/21 00:52:46;;;;;;;40.45;17.17;;;6.30;99.90;;;;;;5096144;28;20517;-50
2021/04/21 00:55:27;;;;;;;37.47;19.75;;;6.40;99.90;;;;;;5087964;28;20649;-50
2021/04/21 00:58:09;;;;;;;47.45;25.55;;;6.50;99.90;;;;;;5091955;28;20610;-51
2021/04/21 01:00:45;;;;;;;45.63;25.15;;;6.70;99.90;;;;;;5094857;28;21835;-51
2021/04/21 01:03:22;;;;;;;52.97;25.65;;;6.80;99.90;;;;;;5078170;28;20181;-49
2021/04/21 01:05:55;;;;;;;43.13;25.35;;;7.00;99.90;;;;;;5088752;28;20168;-53
2021/04/21 01:08:27;;;;;;;46.67;23.75;;;7.20;99.90;;;;;;5095877;28;20178;-53
2021/04/21 01:10:58;;;;;;;39.65;21.52;;;7.30;99.90;;;;;;5089259;28;20185;-51
2021/04/21 01:13:25;;;;;;;41.95;24.02;;;7.20;99.90;;;;;;5085639;28;20197;-52
2021/04/21 01:15:52;;;;;;;44.03;22.27;;;7.40;99.90;;;;;;5077431;28;20235;-53
2021/04/21 01:18:18;;;;;;;38.38;21.92;;;7.40;99.90;;;;;;5089679;28;20208;-49
2021/04/21 01:21:03;;;;;;;42.08;22.27;;;7.40;99.90;;;;;;5094856;28;20173;-52
2021/04/21 01:23:41;;;;;;;41.03;21.63;;;7.40;99.90;;;;;;5088776;28;20157;-51
2021/04/21 01:26:33;;;;;;;44.67;21.95;;;7.50;99.90;;;;;;5093054;28;20165;-53
2021/04/21 01:28:59;;;;;;;46.00;22.58;;;7.60;99.90;;;;;;5089057;28;20536;-50
2021/04/21 01:31:25;;;;;;;40.35;21.15;;;7.60;99.90;;;;;;5078880;28;20217;-52
2021/04/21 01:33:52;;;;;;;40.55;21.40;;;7.60;99.90;;;;;;5094968;28;20181;-51
2021/04/21 01:36:23;;;;;;;42.00;22.08;;;7.60;99.90;;;;;;5088712;28;20539;-53
2021/04/21 01:38:50;;;;;;;37.00;22.48;;;7.60;99.90;;;;;;5100477;28;20216;-50
2021/04/21 01:41:18;;;;;;;41.38;22.02;;;7.60;99.90;;;;;;5090868;28;20195;-51
2021/04/21 01:43:48;;;;;;;42.58;22.42;;;7.60;99.90;;;;;;5092049;28;20173;-51
2021/04/21 01:46:15;;;;;;;41.83;22.60;;;7.50;99.90;;;;;;5095420;28;20184;-49
2021/04/21 01:48:41;;;;;;;37.72;21.33;;;7.50;99.90;;;;;;5093507;28;20180;-52
2021/04/21 01:51:34;;;;;;;39.95;21.17;;;7.60;99.90;;;;;;5093332;28;20178;-50
2021/04/21 01:54:08;;;;;;;37.75;20.58;;;7.60;99.90;;;;;;5087694;28;20188;-50
2021/04/21 01:56:49;;;;;;;40.33;21.10;;;7.50;99.90;;;;;;5089762;28;20196;-52
2021/04/21 01:59:38;;;;;;;41.15;22.02;;;7.50;99.90;;;;;;5090688;28;20673;-52
2021/04/21 02:02:43;;;;;;;41.15;23.08;;;7.40;99.90;;;;;;5089997;28;20188;-54
2021/04/21 02:05:38;;;;;;;45.47;22.20;;;7.40;99.90;;;;;;5098575;28;20192;-51
2021/04/21 02:08:26;;;;;;;40.58;22.17;;;7.30;99.90;;;;;;5076866;28;20180;-51
2021/04/21 02:11:11;;;;;;;43.10;23.98;;;7.30;99.90;;;;;;5090357;28;20165;-51
2021/04/21 02:14:03;;;;;;;48.83;24.10;;;7.20;99.90;;;;;;5094523;28;20172;-54
2021/04/21 02:16:48;;;;;;;42.85;23.23;;;7.10;99.90;;;;;;5094252;28;20165;-50
2021/04/21 02:19:42;;;;;;;39.53;22.50;;;7.20;99.90;;;;;;5093944;28;20224;-52
2021/04/21 02:22:35;;;;;;;46.83;23.25;;;7.20;99.90;;;;;;5090186;28;20173;-51
2021/04/21 02:25:03;;;;;;;44.58;21.98;;;7.30;99.90;;;;;;5091269;28;20165;-53
2021/04/21 02:28:00;;;;;;;42.53;21.73;;;7.30;99.90;;;;;;5095589;28;20541;-52
2021/04/21 02:30:42;;;;;;;42.88;21.85;;;7.30;99.90;;;;;;5083211;28;20196;-52
2021/04/21 02:33:39;;;;;;;44.50;22.80;;;7.40;99.90;;;;;;5084256;28;20548;-50
2021/04/21 02:36:10;;;;;;;40.50;21.50;;;7.40;99.90;;;;;;5087738;28;20157;-53
2021/04/21 02:38:49;;;;;;;42.38;22.63;;;7.50;99.90;;;;;;5080073;28;20190;-53
2021/04/21 02:41:55;;;;;;;46.65;22.75;;;7.60;99.90;;;;;;5091518;28;20173;-52
2021/04/21 02:44:30;;;;;;;44.95;23.85;;;7.70;99.90;;;;;;5092496;28;20196;-53
2021/04/21 02:47:18;;;;;;;43.97;24.70;;;7.70;99.90;;;;;;5097840;28;20187;-49
2021/04/21 02:49:56;;;;;;;47.35;26.13;;;7.70;99.90;;;;;;5075539;28;20164;-50
2021/04/21 02:52:36;;;;;;;55.67;28.60;;;7.60;99.90;;;;;;5101051;28;20548;-52
2021/04/21 02:55:30;;;;;;;54.22;27.95;;;7.60;99.90;;;;;;5092305;28;20173;-51
2021/04/21 02:58:17;;;;;;;59.80;28.38;;;7.50;99.90;;;;;;5095416;28;20181;-50
2021/04/21 03:01:06;;;;;;;54.20;28.15;;;7.50;99.90;;;;;;5096741;28;20181;-51
2021/04/21 03:03:46;;;;;;;59.38;27.00;;;7.40;99.90;;;;;;5090667;28;20165;-49
2021/04/21 03:06:16;;;;;;;54.83;27.33;;;7.40;99.90;;;;;;5092937;28;20185;-51
2021/04/21 03:08:46;;;;;;;62.25;29.23;;;7.40;99.90;;;;;;5098286;28;20166;-49
2021/04/21 03:11:13;;;;;;;54.67;27.90;;;7.40;99.90;;;;;;5093606;28;20172;-50
2021/04/21 03:14:06;;;;;;;51.67;26.23;;;7.40;99.90;;;;;;5089748;28;20184;-52
2021/04/21 03:16:35;;;;;;;55.25;27.42;;;7.40;99.90;;;;;;5085042;28;20185;-52
2021/04/21 03:19:06;;;;;;;59.20;28.30;;;7.40;99.90;;;;;;5089112;28;20219;-52
2021/04/21 03:21:35;;;;;;;53.05;25.80;;;7.40;99.90;;;;;;5092445;28;20170;-51
2021/04/21 03:24:23;;;;;;;55.03;25.05;;;7.40;99.90;;;;;;5092188;28;20170;-49
2021/04/21 03:26:54;;;;;;;54.55;25.80;;;7.40;99.90;;;;;;5090909;28;20554;-52
2021/04/21 03:29:38;;;;;;;52.00;23.90;;;7.40;99.90;;;;;;5091687;28;20157;-52
2021/04/21 03:32:15;;;;;;;52.15;24.92;;;7.50;99.90;;;;;;5101760;28;20209;-49
2021/04/21 03:34:42;;;;;;;58.97;25.35;;;7.50;99.90;;;;;;5084882;28;20255;-53
2021/04/21 03:37:31;;;;;;;51.65;24.23;;;7.50;99.90;;;;;;5092561;28;20181;-50
2021/04/21 03:39:57;;;;;;;58.13;23.60;;;7.40;99.90;;;;;;5091070;28;20213;-50
2021/04/21 03:42:23;;;;;;;45.47;20.02;;;7.40;99.90;;;;;;5090690;28;20170;-52
2021/04/21 03:44:50;;;;;;;48.63;22.65;;;7.40;99.90;;;;;;5094207;28;20197;-50
2021/04/21 03:47:17;;;;;;;52.75;21.17;;;7.30;99.90;;;;;;5097392;28;20637;-52
2021/04/21 03:49:43;;;;;;;40.88;19.65;;;7.30;99.90;;;;;;5099585;28;20657;-51
2021/04/21 03:52:09;;;;;;;43.60;19.35;;;7.30;99.90;;;;;;5090401;28;20177;-50
2021/04/21 03:54:35;;;;;;;47.78;19.23;;;7.30;99.90;;;;;;5076080;28;20170;-51
2021/04/21 03:57:03;;;;;;;41.38;17.13;;;7.40;99.90;;;;;;5089267;28;20170;-50
2021/04/21 03:59:29;;;;;;;36.97;16.95;;;7.40;99.90;;;;;;5080417;28;20193;-50
2021/04/21 04:01:55;;;;;;;35.80;14.98;;;7.40;99.90;;;;;;5094219;28;20181;-49
2021/04/21 04:04:21;;;;;;;29.83;14.13;;;7.40;99.90;;;;;;5082743;28;20177;-54
2021/04/21 04:06:48;;;;;;;25.88;10.50;;;7.50;99.90;;;;;;5096929;28;20263;-50
2021/04/21 04:09:19;;;;;;;22.73;8.65;;;7.50;99.90;;;;;;5066091;28;20177;-50
2021/04/21 04:11:47;;;;;;;21.42;6.90;;;7.50;99.90;;;;;;5097788;28;20169;-49
2021/04/21 04:14:23;;;;;;;13.27;5.38;;;7.50;99.90;;;;;;5083450;28;20165;-51
2021/04/21 04:16:54;;;;;;;19.40;6.07;;;7.50;99.90;;;;;;5097672;28;20536;-49
2021/04/21 04:19:20;;;;;;;26.55;6.40;;;7.60;99.90;;;;;;5090685;28;20197;-49
2021/04/21 04:22:02;;;;;;;21.48;5.82;;;7.60;99.90;;;;;;5101129;28;20173;-52
2021/04/21 04:24:30;;;;;;;17.23;4.13;;;7.60;99.90;;;;;;5096650;28;20173;-49
2021/04/21 04:26:56;;;;;;;10.52;2.75;;;7.60;99.90;;;;;;5091497;28;20173;-50
2021/04/21 04:29:22;;;;;;;13.25;2.83;;;7.60;99.90;;;;;;5069919;28;20184;-53
2021/04/21 04:31:49;;;;;;;26.15;3.42;;;7.60;99.90;;;;;;5094586;28;20701;-49
2021/04/21 04:34:15;;;;;;;16.88;2.35;;;7.60;99.90;;;;;;5083628;28;20168;-49
2021/04/21 04:36:41;;;;;;;10.00;2.55;;;7.70;99.90;;;;;;5079386;28;20166;-50
2021/04/21 04:39:08;;;;;;;14.82;2.33;;;7.60;99.90;;;;;;5092190;28;20200;-49
2021/04/21 04:41:36;;;;;;;17.60;2.83;;;7.70;99.90;;;;;;5090309;28;20207;-51
2021/04/21 04:44:02;;;;;;;15.68;2.53;;;7.70;99.90;;;;;;5091930;28;20201;-49
2021/04/21 04:46:29;;;;;;;18.50;2.72;;;7.70;99.90;;;;;;5092107;28;20177;-48
2021/04/21 04:49:01;;;;;;;19.60;2.38;;;7.70;99.90;;;;;;5091008;28;20534;-49
2021/04/21 04:51:28;;;;;;;25.50;2.95;;;7.70;99.90;;;;;;5091325;28;20153;-49
2021/04/21 04:53:54;;;;;;;35.33;3.35;;;7.80;99.90;;;;;;5091388;28;20646;-53
2021/04/21 04:56:20;;;;;;;19.13;3.65;;;7.80;99.90;;;;;;5091687;28;20641;-50
2021/04/21 04:58:46;;;;;;;16.45;2.75;;;7.90;99.90;;;;;;5092384;28;20636;-50
2021/04/21 05:01:13;;;;;;;11.68;1.60;;;7.80;99.90;;;;;;5091284;28;20189;-51
2021/04/21 05:03:51;;;;;;;9.45;1.63;;;7.80;99.90;;;;;;5091474;28;20169;-51
2021/04/21 05:06:24;;;;;;;21.35;2.13;;;7.80;99.90;;;;;;5095297;28;20640;-50
2021/04/21 05:08:52;;;;;;;9.90;2.63;;;7.80;99.90;;;;;;5095096;28;20162;-49
2021/04/21 05:11:18;;;;;;;25.88;2.28;;;7.90;99.90;;;;;;5096747;28;20184;-53
2021/04/21 05:13:49;;;;;;;14.57;2.63;;;7.80;99.90;;;;;;5078734;28;20169;-52
2021/04/21 05:16:25;;;;;;;14.95;1.83;;;7.80;99.90;;;;;;5095038;28;20201;-53
2021/04/21 05:19:05;;;;;;;21.67;2.55;;;7.70;99.90;;;;;;5094902;28;20173;-50
2021/04/21 05:21:55;;;;;;;14.25;2.00;;;7.80;99.90;;;;;;5079659;28;20168;-49
2021/04/21 05:24:59;;;;;;;13.63;1.65;;;7.80;99.90;;;;;;5096354;28;20622;-51
2021/04/21 05:28:02;;;;;;;17.83;2.00;;;8.00;99.90;;;;;;5097744;28;20185;-53
2021/04/21 05:31:00;;;;;;;13.15;1.50;;;7.90;99.90;;;;;;5095393;28;20177;-51
2021/04/21 05:34:23;;;;;;;28.20;2.25;;;8.10;99.90;;;;;;5095707;28;20649;-50
2021/04/21 05:37:16;;;;;;;22.67;1.92;;;8.00;99.90;;;;;;5073210;28;20178;-51
2021/04/21 05:39:42;;;;;;;100.20;5.45;;;7.80;99.90;;;;;;5073437;28;20297;-53
2021/04/21 05:42:51;;;;;;;27.48;2.28;;;7.80;99.90;;;;;;5090444;28;20536;-53
2021/04/21 05:46:03;;;;;;;14.65;2.55;;;7.80;99.90;;;;;;5064215;28;20201;-53
2021/04/21 05:48:50;;;;;;;16.88;1.77;;;7.80;99.90;;;;;;5074495;28;20185;-52
2021/04/21 05:51:47;;;;;;;24.45;1.75;;;7.80;99.90;;;;;;5095375;28;20533;-54
2021/04/21 05:54:45;;;;;;;9.77;1.60;;;8.00;99.90;;;;;;5094902;28;20162;-53
2021/04/21 05:57:23;;;;;;;17.80;1.63;;;8.00;99.90;;;;;;5095063;28;20168;-50
2021/04/21 06:00:22;;;;;;;18.88;1.73;;;7.90;99.90;;;;;;5095362;28;20197;-51
2021/04/21 06:02:48;;;;;;;10.95;1.67;;;8.00;99.90;;;;;;5087831;28;20185;-52
2021/04/21 06:05:15;;;;;;;19.52;2.55;;;7.90;99.90;;;;;;5077457;28;20176;-52
2021/04/21 06:07:44;;;;;;;18.85;2.13;;;7.90;99.90;;;;;;5095633;28;20169;-50
2021/04/21 06:10:29;;;;;;;15.77;2.10;;;7.80;99.90;;;;;;5094989;28;20173;-49
2021/04/21 06:12:58;;;;;;;9.82;1.58;;;7.80;99.90;;;;;;5094297;28;20154;-51
2021/04/21 06:15:26;;;;;;;26.23;1.98;;;7.60;99.90;;;;;;5095203;28;20516;-51
2021/04/21 06:17:56;;;;;;;22.65;2.38;;;7.60;99.90;;;;;;5094281;28;20177;-54
2021/04/21 06:20:58;;;;;;;10.88;2.20;;;7.70;99.90;;;;;;5096338;28;20216;-52
2021/04/21 06:23:25;;;;;;;16.45;2.25;;;7.80;99.90;;;;;;5104449;28;20191;-50
2021/04/21 06:26:01;;;;;;;20.52;2.60;;;8.10;99.90;;;;;;5100953;28;20177;-54
2021/04/21 06:28:27;;;;;;;78.00;4.72;;;8.20;99.90;;;;;;5094186;28;20169;-51
2021/04/21 06:31:06;;;;;;;20.95;2.30;;;8.20;99.90;;;;;;5094597;28;20194;-49
2021/04/21 06:33:36;;;;;;;21.30;1.23;;;8.00;99.90;;;;;;5095246;28;20192;-51
2021/04/21 06:36:04;;;;;;;25.33;1.95;;;7.80;99.90;;;;;;5094992;28;20629;-49
2021/04/21 06:38:31;;;;;;;11.20;1.63;;;7.70;99.90;;;;;;5094758;28;20175;-50
2021/04/21 06:40:57;;;;;;;17.35;2.13;;;7.80;99.90;;;;;;5094519;28;20209;-50
2021/04/21 06:43:29;;;;;;;15.57;1.90;;;8.10;99.90;;;;;;5100461;28;20187;-50
2021/04/21 06:45:55;;;;;;;15.70;1.70;;;8.30;99.90;;;;;;5105002;28;20168;-50
2021/04/21 06:48:32;;;;;;;8.98;1.45;;;8.60;99.90;;;;;;5098345;28;20188;-50
2021/04/21 06:51:11;;;;;;;21.92;1.95;;;8.30;99.90;;;;;;5106691;28;20177;-50
2021/04/21 06:53:38;;;;;;;18.75;2.72;;;8.30;99.90;;;;;;5087919;28;20188;-49
2021/04/21 06:56:06;;;;;;;20.90;2.10;;;8.30;99.90;;;;;;5102462;28;20185;-53
2021/04/21 06:58:33;;;;;;;16.77;1.90;;;8.20;99.90;;;;;;5093774;28;20197;-52
2021/04/21 07:01:15;;;;;;;18.05;1.88;;;8.20;99.90;;;;;;5095739;28;20676;-54
2021/04/21 07:03:42;;;;;;;8.55;2.00;;;8.20;99.90;;;;;;5096633;28;20172;-53
2021/04/21 07:06:08;;;;;;;37.60;2.50;;;8.00;99.90;;;;;;5095932;28;20177;-52
2021/04/21 07:08:37;;;;;;;27.08;2.95;;;8.00;99.90;;;;;;5095479;28;20200;-53
2021/04/21 07:11:05;;;;;;;21.20;2.83;;;8.00;99.90;;;;;;5107580;28;20173;-54
2021/04/21 07:13:51;;;;;;;34.90;4.38;;;7.70;99.90;;;;;;5109931;28;20180;-52
2021/04/21 07:16:22;;;;;;;17.17;2.70;;;7.90;99.90;;;;;;5105267;28;20166;-53
2021/04/21 07:18:54;;;;;;;17.23;2.50;;;8.10;99.90;;;;;;5102008;28;20644;-54
2021/04/21 07:21:21;;;;;;;17.23;1.83;;;8.20;99.90;;;;;;5103923;28;20197;-53
2021/04/21 07:23:54;;;;;;;18.73;1.80;;;8.60;99.90;;;;;;5094143;28;20228;-52
2021/04/21 07:26:32;;;;;;;11.90;2.28;;;8.50;99.90;;;;;;5077492;28;20211;-53
2021/04/21 07:28:58;;;;;;;8.63;1.65;;;8.40;99.90;;;;;;5093904;28;20640;-51
2021/04/21 07:31:24;;;;;;;9.90;1.52;;;8.50;99.90;;;;;;5093104;28;20583;-49
2021/04/21 07:33:51;;;;;;;20.75;1.63;;;8.70;99.90;;;;;;5094083;28;20165;-51
2021/04/21 07:36:21;;;;;;;14.25;1.73;;;8.90;99.90;;;;;;5098531;28;20173;-51
2021/04/21 07:38:48;;;;;;;7.22;1.38;;;8.90;99.90;;;;;;5103596;28;20176;-52
2021/04/21 07:41:15;;;;;;;18.85;1.70;;;8.80;99.90;;;;;;5092251;28;20208;-49
2021/04/21 07:43:46;;;;;;;15.70;2.33;;;8.80;99.90;;;;;;5101575;28;20200;-50
2021/04/21 07:46:20;;;;;;;24.02;2.78;;;9.00;99.90;;;;;;5097576;28;20180;-49
2021/04/21 07:48:46;;;;;;;27.73;2.65;;;9.10;99.90;;;;;;5100103;28;20169;-50
2021/04/21 07:51:20;;;;;;;22.27;3.58;;;8.70;99.90;;;;;;5096744;28;20176;-51
2021/04/21 07:53:46;;;;;;;18.33;2.25;;;8.40;99.90;;;;;;5092796;28;20157;-50
2021/04/21 07:56:13;;;;;;;14.82;2.55;;;9.00;99.90;;;;;;5092258;28;20177;-50
2021/04/21 07:58:39;;;;;;;19.75;2.78;;;9.20;99.90;;;;;;5091752;28;20170;-50
2021/04/21 08:01:05;;;;;;;12.43;2.50;;;9.00;99.90;;;;;;5091706;28;20661;-49
2021/04/21 08:03:33;;;;;;;10.65;2.25;;;8.80;99.90;;;;;;5091723;28;20525;-50
2021/04/21 08:05:59;;;;;;;16.98;2.33;;;8.50;99.90;;;;;;5074150;28;20532;-51
2021/04/21 08:08:35;;;;;;;13.13;2.45;;;9.70;99.90;;;;;;5092226;28;20204;-51
2021/04/21 08:11:04;;;;;;;11.10;2.40;;;10.10;99.90;;;;;;5089939;28;20189;-53
2021/04/21 08:13:43;;;;;;;15.98;2.83;;;10.00;99.90;;;;;;5091291;28;20181;-50
2021/04/21 08:16:29;;;;;;;24.02;3.53;;;9.20;99.90;;;;;;5092385;28;20223;-53
2021/04/21 08:18:56;;;;;;;14.30;2.70;;;9.00;99.90;;;;;;5092295;28;20180;-54
2021/04/21 08:21:37;;;;;;;18.27;3.63;;;9.60;99.90;;;;;;5091658;28;20205;-51
2021/04/21 08:24:24;;;;;;;35.92;3.55;;;9.60;99.90;;;;;;5090983;28;20176;-53
2021/04/21 08:26:52;;;;;;;15.48;3.22;;;9.90;99.90;;;;;;5090697;28;20185;-50
2021/04/21 08:29:18;;;;;;;25.73;3.22;;;10.20;99.90;;;;;;5092072;28;20185;-50
2021/04/21 08:31:51;;;;;;;17.70;3.10;;;10.80;99.90;;;;;;5091132;28;20224;-50
2021/04/21 08:34:18;;;;;;;30.17;3.42;;;11.40;99.90;;;;;;5091811;28;20162;-50
2021/04/21 08:36:44;;;;;;;12.95;3.13;;;11.20;99.90;;;;;;5092057;28;20652;-50
2021/04/21 08:39:11;;;;;;;11.20;2.58;;;11.50;99.90;;;;;;5090271;28;20931;-50
2021/04/21 08:41:38;;;;;;;13.15;2.70;;;11.70;99.90;;;;;;5091475;28;20692;-51
2021/04/21 08:44:05;;;;;;;9.48;2.53;;;11.80;99.90;;;;;;5091378;28;20193;-51
2021/04/21 08:46:31;;;;;;;19.08;3.05;;;11.60;99.90;;;;;;5091913;28;20177;-52
2021/04/21 08:48:58;;;;;;;23.75;3.45;;;10.60;99.90;;;;;;5092524;28;20538;-52
2021/04/21 08:51:24;;;;;;;17.55;3.15;;;10.10;99.90;;;;;;5092125;28;20185;-50
2021/04/21 08:53:57;;;;;;;33.92;4.05;;;10.10;99.90;;;;;;5091019;28;20177;-51
2021/04/21 08:56:23;;;;;;;15.27;3.10;;;10.00;99.90;;;;;;5091811;28;20189;-50
2021/04/21 08:58:50;;;;;;;16.17;2.75;;;10.30;99.90;;;;;;5091994;28;20173;-50
2021/04/21 09:01:17;;;;;;;82.60;4.65;;;10.80;99.90;;;;;;5092040;28;20205;-50
2021/04/21 09:03:44;;;;;;;10.52;1.85;;;10.20;99.90;;;;;;5090870;28;20180;-51
2021/04/21 09:06:12;;;;;;;10.77;2.38;;;10.10;99.90;;;;;;5091831;28;20184;-49
2021/04/21 09:08:39;;;;;;;40.33;3.65;;;10.30;99.90;;;;;;5090333;28;20525;-51
2021/04/21 09:11:06;;;;;;;19.35;2.28;;;10.40;99.90;;;;;;5072947;28;20189;-53
2021/04/21 09:13:32;;;;;;;20.48;2.60;;;11.30;99.90;;;;;;5085806;28;20185;-53
2021/04/21 09:15:58;;;;;;;16.20;2.88;;;11.50;99.90;;;;;;5090112;28;20184;-50
2021/04/21 09:18:28;;;;;;;10.52;2.17;;;9.60;99.90;;;;;;5091886;28;20537;-50
2021/04/21 09:20:54;;;;;;;18.92;2.40;;;9.90;99.90;;;;;;5091935;28;20209;-53
2021/04/21 09:23:21;;;;;;;14.80;2.47;;;10.40;99.90;;;;;;5091500;28;20661;-50
2021/04/21 09:25:49;;;;;;;12.05;1.80;;;11.40;99.90;;;;;;5090505;28;20532;-51
2021/04/21 09:28:16;;;;;;;15.75;2.35;;;11.20;99.90;;;;;;5090289;28;20165;-51
2021/04/21 09:30:54;;;;;;;25.48;2.63;;;11.00;99.90;;;;;;5091280;28;20188;-51
2021/04/21 09:33:20;;;;;;;17.25;1.85;;;10.20;99.90;;;;;;5091034;28;20859;-51
2021/04/21 09:35:47;;;;;;;17.58;2.63;;;10.00;99.90;;;;;;5094979;28;20188;-50
2021/04/21 09:38:24;;;;;;;14.30;2.00;;;10.00;99.90;;;;;;5091295;28;20558;-59
2021/04/21 09:40:58;;;;;;;13.23;1.80;;;9.20;99.90;;;;;;5091375;28;20209;-52
2021/04/21 09:43:28;;;;;;;13.27;1.90;;;9.60;99.90;;;;;;5092111;28;20192;-52
2021/04/21 09:46:02;;;;;;;6.80;1.63;;;9.20;99.90;;;;;;5089470;28;20196;-53
2021/04/21 09:48:33;;;;;;;44.95;3.20;;;8.80;99.90;;;;;;5091920;28;20169;-54
2021/04/21 09:51:00;;;;;;;9.85;1.85;;;8.60;99.90;;;;;;5090597;28;20178;-52
2021/04/21 09:53:34;;;;;;;14.07;1.83;;;8.90;99.90;;;;;;5094847;28;20682;-52
2021/04/21 09:56:03;;;;;;;15.98;1.48;;;9.00;99.90;;;;;;5094544;28;20169;-51
2021/04/21 09:58:38;;;;;;;10.45;1.80;;;8.80;99.90;;;;;;5094835;28;20177;-51
2021/04/21 10:01:36;;;;;;;6.32;1.75;;;9.00;99.90;;;;;;5095050;28;20221;-50
2021/04/21 10:04:24;;;;;;;7.05;1.42;;;8.80;99.90;;;;;;5094623;28;20189;-52
2021/04/21 10:06:50;;;;;;;12.10;1.55;;;8.60;99.90;;;;;;5092098;28;20679;-53
2021/04/21 10:09:24;;;;;;;25.13;1.55;;;9.50;99.90;;;;;;5093996;28;20189;-53
2021/04/21 10:11:51;;;;;;;13.52;1.63;;;9.30;99.90;;;;;;5094792;28;20182;-52
2021/04/21 10:14:23;;;;;;;7.65;1.15;;;9.50;99.90;;;;;;5094553;28;20177;-53
2021/04/21 10:16:52;;;;;;;26.75;2.13;;;9.00;99.90;;;;;;5084739;28;20176;-51
2021/04/21 10:19:21;;;;;;;8.82;1.45;;;9.60;99.90;;;;;;5094014;28;20557;-54
2021/04/21 10:21:47;;;;;;;7.93;1.33;;;9.40;99.90;;;;;;5076666;28;20217;-51
2021/04/21 10:24:13;;;;;;;13.73;1.73;;;9.60;99.90;;;;;;5094433;28;20185;-50
2021/04/21 10:26:41;;;;;;;11.57;1.50;;;10.30;99.90;;;;;;5094541;28;20185;-53
2021/04/21 10:29:07;;;;;;;16.40;1.88;;;10.20;99.90;;;;;;5093406;28;20177;-54
2021/04/21 10:31:33;;;;;;;11.07;2.25;;;9.70;99.90;;;;;;5088466;28;20738;-52
2021/04/21 10:34:02;;;;;;;23.77;1.83;;;9.20;99.90;;;;;;5094117;28;20641;-53
2021/04/21 10:36:29;;;;;;;12.05;1.38;;;9.20;99.90;;;;;;5093198;28;20534;-53
2021/04/21 10:38:55;;;;;;;9.25;1.00;;;9.60;99.90;;;;;;5093001;28;20517;-50
2021/04/21 10:41:25;;;;;;;10.25;1.75;;;9.80;99.90;;;;;;5092554;28;20205;-53
2021/04/21 10:44:11;;;;;;;11.40;1.10;;;11.20;99.90;;;;;;5093436;28;20197;-52
2021/04/21 10:46:57;;;;;;;11.07;1.52;;;12.90;99.90;;;;;;5084875;28;20180;-51
2021/04/21 10:49:41;;;;;;;7.93;1.50;;;12.40;99.90;;;;;;5093105;28;20510;-52
2021/04/21 10:52:26;;;;;;;11.00;1.40;;;12.40;99.90;;;;;;5093675;28;20181;-53
2021/04/21 10:55:12;;;;;;;12.60;1.77;;;12.40;99.90;;;;;;5094249;28;20165;-52
2021/04/21 10:57:42;;;;;;;7.57;1.10;;;14.10;99.90;;;;;;5094032;28;20173;-53
2021/04/21 11:00:13;;;;;;;17.42;1.50;;;14.40;98.10;;;;;;5092606;28;20204;-52
2021/04/21 11:05:21;;;;;;;11.85;1.40;;;14.30;98.30;;;;;;5093409;28;20188;-52
2021/04/21 11:08:01;;;;;;;9.00;1.55;;;13.90;97.70;;;;;;5094134;28;20520;-50
2021/04/21 11:10:46;;;;;;;9.45;1.35;;;12.30;97.40;;;;;;5091782;28;20196;-50
2021/04/21 11:13:32;;;;;;;10.07;0.90;;;10.70;99.90;;;;;;5087404;28;20165;-50
2021/04/21 11:15:59;;;;;;;11.32;1.50;;;10.60;99.90;;;;;;5080332;28;20182;-54
2021/04/21 11:18:28;;;;;;;10.63;0.90;;;11.30;99.90;;;;;;5093220;28;20181;-51
2021/04/21 11:20:54;;;;;;;44.60;3.28;;;11.60;99.90;;;;;;5093581;28;20202;-51
2021/04/21 11:23:48;;;;;;;12.18;1.90;;;11.70;99.90;;;;;;5092654;28;20192;-50
2021/04/21 11:26:23;;;;;;;15.15;1.17;;;11.00;99.90;;;;;;5092769;28;20232;-50
2021/04/21 11:29:15;;;;;;;5.65;1.13;;;10.50;99.90;;;;;;5093382;28;20535;-53
2021/04/21 11:31:51;;;;;;;24.85;1.85;;;11.70;99.90;;;;;;5093008;28;20220;-53
2021/04/21 11:34:27;;;;;;;15.68;2.28;;;11.90;99.90;;;;;;5092681;28;20161;-49
2021/04/21 11:37:04;;;;;;;11.18;1.20;;;12.90;99.90;;;;;;5092822;28;20176;-51
2021/04/21 11:42:20;;;;;;;7.03;1.25;;;12.90;99.90;;;;;;5092474;28;20204;-52
2021/04/21 11:44:52;;;;;;;7.95;1.10;;;12.40;99.90;;;;;;5094715;28;20192;-52
2021/04/21 11:47:44;;;;;;;8.30;1.27;;;12.50;99.90;;;;;;5099790;28;20175;-52
2021/04/21 11:50:17;;;;;;;8.98;1.20;;;12.70;99.90;;;;;;5099039;28;20162;-53
2021/04/21 11:52:50;;;;;;;11.18;1.35;;;12.60;99.90;;;;;;5103203;28;20181;-53
2021/04/21 11:55:27;;;;;;;13.35;0.90;;;12.70;99.40;;;;;;5106184;28;20617;-50
2021/04/21 11:58:12;;;;;;;7.30;0.90;;;13.00;99.60;;;;;;5113642;28;20655;-50
2021/04/21 12:00:41;;;;;;;10.90;1.17;;;12.90;99.70;;;;;;5106628;28;20223;-54
2021/04/21 12:03:25;;;;;;;11.95;1.33;;;13.30;99.70;;;;;;5090094;28;20180;-53
2021/04/21 12:05:56;;;;;;;11.88;1.17;;;13.40;99.40;;;;;;5094314;28;20161;-53
2021/04/21 12:08:23;;;;;;;22.48;1.50;;;13.50;99.90;;;;;;5091824;28;20782;-53
2021/04/21 12:10:50;;;;;;;13.75;1.10;;;12.80;98.60;;;;;;5092720;28;20216;-51
2021/04/21 12:13:19;;;;;;;7.07;1.42;;;12.90;99.90;;;;;;5091803;28;20169;-51
2021/04/21 12:15:47;;;;;;;9.80;0.85;;;12.90;99.00;;;;;;5091030;28;20169;-53
2021/04/21 12:18:41;;;;;;;13.10;1.23;;;13.40;99.90;;;;;;5091763;28;20188;-53
2021/04/21 12:21:16;;;;;;;12.13;1.15;;;12.80;97.90;;;;;;5092308;28;20189;-50
2021/04/21 12:23:49;;;;;;;16.92;1.20;;;12.30;99.70;;;;;;5092317;28;20569;-50
2021/04/21 12:26:20;;;;;;;9.43;0.88;;;12.40;99.90;;;;;;5091576;28;20176;-52
2021/04/21 12:29:07;;;;;;;12.20;1.50;;;11.80;99.90;;;;;;5092260;28;20165;-51
2021/04/21 12:31:34;;;;;;;11.02;1.60;;;12.00;99.90;;;;;;5092244;28;20232;-51
2021/04/21 12:34:02;;;;;;;9.95;1.10;;;12.10;99.90;;;;;;5086767;28;20226;-53
2021/04/21 12:36:31;;;;;;;9.40;0.80;;;11.90;99.90;;;;;;5096453;28;20350;-52
2021/04/21 12:39:06;;;;;;;1.45;0.35;;;11.90;99.90;;;;;;5099361;28;20165;-53
2021/04/21 12:41:35;;;;;;;7.18;0.70;;;11.70;99.90;;;;;;5098120;28;20221;-55
2021/04/21 12:44:18;;;;;;;6.28;0.43;;;11.70;99.90;;;;;;5100709;28;20200;-55
2021/04/21 12:46:46;;;;;;;7.43;0.70;;;12.10;99.90;;;;;;5099590;28;20172;-54
2021/04/21 12:49:13;;;;;;;2.97;0.77;;;12.90;99.90;;;;;;5098709;28;20177;-52
2021/04/21 12:51:46;;;;;;;4.22;0.45;;;12.40;99.60;;;;;;5091826;28;20192;-52
2021/04/21 12:54:36;;;;;;;4.13;0.80;;;13.20;98.20;;;;;;5092342;28;20173;-51
2021/04/21 12:57:04;;;;;;;66.18;3.55;;;13.40;97.30;;;;;;5097560;28;20177;-55
2021/04/21 12:59:46;;;;;;;5.40;1.10;;;12.80;96.80;;;;;;5092083;28;20169;-54
2021/04/21 13:02:16;;;;;;;7.30;0.65;;;11.60;99.40;;;;;;5095835;28;20205;-53
2021/04/21 13:04:46;;;;;;;8.20;0.75;;;12.00;96.60;;;;;;5094648;28;20201;-49
2021/04/21 13:07:21;;;;;;;5.15;0.50;;;12.00;93.90;;;;;;5084943;28;20192;-51
2021/04/21 13:09:47;;;;;;;2.33;0.55;;;12.10;94.20;;;;;;5090876;28;20169;-52
2021/04/21 13:12:19;;;;;;;1.70;0.50;;;12.30;93.60;;;;;;5091572;28;20540;-53
2021/04/21 13:14:50;;;;;;;19.52;1.55;;;12.50;93.60;;;;;;5091722;28;20193;-52
2021/04/21 13:17:16;;;;;;;28.02;0.95;;;12.60;93.00;;;;;;5091387;28;20170;-49
2021/04/21 13:19:52;;;;;;;1.15;0.40;;;12.70;92.30;;;;;;5090411;28;20181;-52
2021/04/21 13:22:25;;;;;;;9.95;0.60;;;12.50;93.20;;;;;;5090904;28;20696;-51